sensor_id;sensor_type;location;lat;lon;timestamp;temperature;humidity
2202;DHT22;1107;48.654;9.250;2022-08-05T00:02:06;26.50;99.90
2202;DHT22;1107;48.654;9.250;2022-08-05T00:04:33;26.50;98.00
2202;DHT22;1107;48.654;9.250;2022-08-05T00:07:00;26.50;99.90
2202;DHT22;1107;48.654;9.250;2022-08-05T00:09:27;26.40;99.90
2202;DHT22;1107;48.654;9.250;2022-08-05T00:11:54;26.40;99.90
2202;DHT22;1107;48.654;9.250;2022-08-05T00:14:22;26.30;99.90
2202;DHT22;1107;48.654;9.250;2022-08-05T00:16:49;26.20;99.90
2202;DHT22;1107;48.654;9.250;2022-08-05T00:19:16;26.10;99.90
2202;DHT22;1107;48.654;9.250;2022-08-05T00:21:43;26.00;99.90
2202;DHT22;1107;48.654;9.250;2022-08-05T00:24:10;26.00;99.90
2202;DHT22;1107;48.654;9.250;2022-08-05T00:26:37;26.00;99.90
2202;DHT22;1107;48.654;9.250;2022-08-05T00:29:05;26.00;99.90
2202;DHT22;1107;48.654;9.250;2022-08-05T00:31:33;26.00;99.90
2202;DHT22;1107;48.654;9.250;2022-08-05T00:34:00;26.00;99.90
2202;DHT22;1107;48.654;9.250;2022-08-05T00:36:28;26.00;99.90
2202;DHT22;1107;48.654;9.250;2022-08-05T00:38:55;25.90;99.90
2202;DHT22;1107;48.654;9.250;2022-08-05T00:41:27;25.90;99.90
2202;DHT22;1107;48.654;9.250;2022-08-05T00:43:54;25.70;99.90
2202;DHT22;1107;48.654;9.250;2022-08-05T00:46:21;25.60;99.90
2202;DHT22;1107;48.654;9.250;2022-08-05T00:48:50;25.50;99.90
2202;DHT22;1107;48.654;9.250;2022-08-05T00:51:18;25.30;99.90
2202;DHT22;1107;48.654;9.250;2022-08-05T00:53:45;25.20;99.90
2202;DHT22;1107;48.654;9.250;2022-08-05T00:56:13;25.20;99.90
2202;DHT22;1107;48.654;9.250;2022-08-05T00:58:40;25.10;99.90
2202;DHT22;1107;48.654;9.250;2022-08-05T01:01:09;25.10;99.90
2202;DHT22;1107;48.654;9.250;2022-08-05T01:03:36;25.00;99.90
2202;DHT22;1107;48.654;9.250;2022-08-05T01:06:04;24.90;99.90
2202;DHT22;1107;48.654;9.250;2022-08-05T01:08:32;24.80;99.90
2202;DHT22;1107;48.654;9.250;2022-08-05T01:11:03;24.80;99.90
2202;DHT22;1107;48.654;9.250;2022-08-05T01:13:36;24.70;99.90
2202;DHT22;1107;48.654;9.250;2022-08-05T01:16:10;24.60;99.90
2202;DHT22;1107;48.654;9.250;2022-08-05T01:18:41;24.40;99.90
2202;DHT22;1107;48.654;9.250;2022-08-05T01:21:28;24.40;99.90
2202;DHT22;1107;48.654;9.250;2022-08-05T01:24:09;24.50;99.90
2202;DHT22;1107;48.654;9.250;2022-08-05T01:26:52;24.60;99.90
2202;DHT22;1107;48.654;9.250;2022-08-05T01:29:30;24.50;99.90
2202;DHT22;1107;48.654;9.250;2022-08-05T01:32:01;24.60;99.90
2202;DHT22;1107;48.654;9.250;2022-08-05T01:34:31;24.60;99.90
2202;DHT22;1107;48.654;9.250;2022-08-05T01:37:03;24.60;99.90
2202;DHT22;1107;48.654;9.250;2022-08-05T01:39:32;24.60;99.90
2202;DHT22;1107;48.654;9.250;2022-08-05T01:42:01;24.60;99.90
2202;DHT22;1107;48.654;9.250;2022-08-05T01:44:30;24.50;99.90
2202;DHT22;1107;48.654;9.250;2022-08-05T01:46:59;24.50;99.90
2202;DHT22;1107;48.654;9.250;2022-08-05T01:49:28;24.50;99.90
2202;DHT22;1107;48.654;9.250;2022-08-05T01:51:57;24.40;99.90
2202;DHT22;1107;48.654;9.250;2022-08-05T01:54:28;24.40;99.90
2202;DHT22;1107;48.654;9.250;2022-08-05T01:56:59;24.30;99.90
2202;DHT22;1107;48.654;9.250;2022-08-05T01:59:27;24.30;99.90
2202;DHT22;1107;48.654;9.250;2022-08-05T02:01:59;24.30;99.90
2202;DHT22;1107;48.654;9.250;2022-08-05T02:04:28;24.30;99.90
2202;DHT22;1107;48.654;9.250;2022-08-05T02:06:56;24.30;99.90
2202;DHT22;1107;48.654;9.250;2022-08-05T02:09:24;24.20;99.90
2202;DHT22;1107;48.654;9.250;2022-08-05T02:12:00;24.20;99.90
2202;DHT22;1107;48.654;9.250;2022-08-05T02:14:32;24.20;99.90
2202;DHT22;1107;48.654;9.250;2022-08-05T02:17:09;24.20;99.90
2202;DHT22;1107;48.654;9.250;2022-08-05T02:19:41;24.10;99.90
2202;DHT22;1107;48.654;9.250;2022-08-05T02:22:14;24.10;99.90
2202;DHT22;1107;48.654;9.250;2022-08-05T02:24:46;24.10;99.90
2202;DHT22;1107;48.654;9.250;2022-08-05T02:27:17;24.10;99.90
2202;DHT22;1107;48.654;9.250;2022-08-05T02:29:46;24.10;99.90
2202;DHT22;1107;48.654;9.250;2022-08-05T02:32:17;24.10;99.90
2202;DHT22;1107;48.654;9.250;2022-08-05T02:34:46;24.10;99.90
2202;DHT22;1107;48.654;9.250;2022-08-05T02:37:13;24.20;99.90
2202;DHT22;1107;48.654;9.250;2022-08-05T02:39:41;24.20;99.90
2202;DHT22;1107;48.654;9.250;2022-08-05T02:42:08;24.10;99.90
2202;DHT22;1107;48.654;9.250;2022-08-05T02:44:37;24.10;99.90
2202;DHT22;1107;48.654;9.250;2022-08-05T02:47:07;24.10;99.90
2202;DHT22;1107;48.654;9.250;2022-08-05T02:49:39;24.10;99.90
2202;DHT22;1107;48.654;9.250;2022-08-05T02:52:10;24.10;99.90
2202;DHT22;1107;48.654;9.250;2022-08-05T02:54:38;24.10;99.90
2202;DHT22;1107;48.654;9.250;2022-08-05T02:57:09;24.10;99.90
2202;DHT22;1107;48.654;9.250;2022-08-05T02:59:38;24.10;99.90
2202;DHT22;1107;48.654;9.250;2022-08-05T03:02:07;24.10;99.90
2202;DHT22;1107;48.654;9.250;2022-08-05T03:04:37;24.00;99.90
2202;DHT22;1107;48.654;9.250;2022-08-05T03:07:05;24.00;99.90
2202;DHT22;1107;48.654;9.250;2022-08-05T03:09:32;24.00;99.90
2202;DHT22;1107;48.654;9.250;2022-08-05T03:11:59;24.10;99.90
2202;DHT22;1107;48.654;9.250;2022-08-05T03:14:26;24.00;99.90
2202;DHT22;1107;48.654;9.250;2022-08-05T03:16:53;24.00;99.90
2202;DHT22;1107;48.654;9.250;2022-08-05T03:19:20;24.00;99.90
2202;DHT22;1107;48.654;9.250;2022-08-05T03:21:49;24.00;99.90
2202;DHT22;1107;48.654;9.250;2022-08-05T03:24:16;23.90;99.90
2202;DHT22;1107;48.654;9.250;2022-08-05T03:26:44;23.80;99.90
2202;DHT22;1107;48.654;9.250;2022-08-05T03:29:11;23.70;99.90
2202;DHT22;1107;48.654;9.250;2022-08-05T03:31:39;23.60;99.90
2202;DHT22;1107;48.654;9.250;2022-08-05T03:34:06;23.60;99.90
2202;DHT22;1107;48.654;9.250;2022-08-05T03:36:34;23.60;99.90
2202;DHT22;1107;48.654;9.250;2022-08-05T03:39:07;23.50;99.90
2202;DHT22;1107;48.654;9.250;2022-08-05T03:41:34;23.40;99.90
2202;DHT22;1107;48.654;9.250;2022-08-05T03:44:01;23.50;99.90
2202;DHT22;1107;48.654;9.250;2022-08-05T03:46:28;23.40;99.90
2202;DHT22;1107;48.654;9.250;2022-08-05T03:48:56;23.40;99.90
2202;DHT22;1107;48.654;9.250;2022-08-05T03:51:27;23.40;99.90
2202;DHT22;1107;48.654;9.250;2022-08-05T03:53:58;23.40;99.90
2202;DHT22;1107;48.654;9.250;2022-08-05T03:56:31;23.40;99.90
2202;DHT22;1107;48.654;9.250;2022-08-05T03:59:00;23.40;99.90
2202;DHT22;1107;48.654;9.250;2022-08-05T04:01:30;23.40;99.90
2202;DHT22;1107;48.654;9.250;2022-08-05T04:04:00;23.40;99.90
2202;DHT22;1107;48.654;9.250;2022-08-05T04:06:27;23.40;99.90
2202;DHT22;1107;48.654;9.250;2022-08-05T04:08:55;23.30;99.90
2202;DHT22;1107;48.654;9.250;2022-08-05T04:11:22;23.20;99.90
2202;DHT22;1107;48.654;9.250;2022-08-05T04:13:51;23.20;99.90
2202;DHT22;1107;48.654;9.250;2022-08-05T04:16:19;23.10;1.00
2202;DHT22;1107;48.654;9.250;2022-08-05T04:18:46;22.90;1.00
2202;DHT22;1107;48.654;9.250;2022-08-05T04:21:13;22.80;1.00
2202;DHT22;1107;48.654;9.250;2022-08-05T04:23:40;22.70;1.00
2202;DHT22;1107;48.654;9.250;2022-08-05T04:26:08;22.70;1.00
2202;DHT22;1107;48.654;9.250;2022-08-05T04:28:35;22.70;1.00
2202;DHT22;1107;48.654;9.250;2022-08-05T04:31:03;22.80;1.00
2202;DHT22;1107;48.654;9.250;2022-08-05T04:33:30;22.80;1.00
2202;DHT22;1107;48.654;9.250;2022-08-05T04:35:57;22.90;1.00
2202;DHT22;1107;48.654;9.250;2022-08-05T04:38:24;22.90;1.00
2202;DHT22;1107;48.654;9.250;2022-08-05T04:40:51;23.00;1.00
2202;DHT22;1107;48.654;9.250;2022-08-05T04:43:18;23.10;99.90
2202;DHT22;1107;48.654;9.250;2022-08-05T04:45:45;23.10;99.90
2202;DHT22;1107;48.654;9.250;2022-08-05T04:48:14;23.20;1.00
2202;DHT22;1107;48.654;9.250;2022-08-05T04:50:42;23.20;1.00
2202;DHT22;1107;48.654;9.250;2022-08-05T04:53:10;23.30;1.00
2202;DHT22;1107;48.654;9.250;2022-08-05T04:55:37;23.30;1.00
2202;DHT22;1107;48.654;9.250;2022-08-05T04:58:06;23.30;1.00
2202;DHT22;1107;48.654;9.250;2022-08-05T05:00:33;23.30;1.00
2202;DHT22;1107;48.654;9.250;2022-08-05T05:03:00;23.30;1.00
2202;DHT22;1107;48.654;9.250;2022-08-05T05:05:29;23.40;1.00
2202;DHT22;1107;48.654;9.250;2022-08-05T05:08:01;23.30;1.00
2202;DHT22;1107;48.654;9.250;2022-08-05T05:10:29;23.30;1.00
2202;DHT22;1107;48.654;9.250;2022-08-05T05:12:56;23.40;1.00
2202;DHT22;1107;48.654;9.250;2022-08-05T05:15:23;23.50;1.00
2202;DHT22;1107;48.654;9.250;2022-08-05T05:17:50;23.40;1.00
2202;DHT22;1107;48.654;9.250;2022-08-05T05:20:17;23.40;1.00
2202;DHT22;1107;48.654;9.250;2022-08-05T05:22:46;23.60;1.00
2202;DHT22;1107;48.654;9.250;2022-08-05T05:25:13;23.80;1.00
2202;DHT22;1107;48.654;9.250;2022-08-05T05:27:40;24.00;99.90
2202;DHT22;1107;48.654;9.250;2022-08-05T05:30:08;24.20;99.90
2202;DHT22;1107;48.654;9.250;2022-08-05T05:32:35;24.40;99.90
2202;DHT22;1107;48.654;9.250;2022-08-05T05:35:02;24.60;99.90
2202;DHT22;1107;48.654;9.250;2022-08-05T05:37:29;24.70;99.90
2202;DHT22;1107;48.654;9.250;2022-08-05T05:39:57;24.90;99.90
2202;DHT22;1107;48.654;9.250;2022-08-05T05:42:24;25.10;99.90
2202;DHT22;1107;48.654;9.250;2022-08-05T05:44:51;25.30;99.90
2202;DHT22;1107;48.654;9.250;2022-08-05T05:47:18;25.40;99.90
2202;DHT22;1107;48.654;9.250;2022-08-05T05:49:45;25.60;99.90
2202;DHT22;1107;48.654;9.250;2022-08-05T05:52:12;25.80;99.90
2202;DHT22;1107;48.654;9.250;2022-08-05T05:54:39;25.90;99.90
2202;DHT22;1107;48.654;9.250;2022-08-05T05:57:08;26.10;99.90
2202;DHT22;1107;48.654;9.250;2022-08-05T05:59:35;26.30;99.90
2202;DHT22;1107;48.654;9.250;2022-08-05T06:02:02;26.40;99.90
2202;DHT22;1107;48.654;9.250;2022-08-05T06:04:29;26.50;99.90
2202;DHT22;1107;48.654;9.250;2022-08-05T06:06:56;26.60;99.90
2202;DHT22;1107;48.654;9.250;2022-08-05T06:09:22;26.80;99.90
2202;DHT22;1107;48.654;9.250;2022-08-05T06:11:50;27.00;99.90
2202;DHT22;1107;48.654;9.250;2022-08-05T06:14:18;27.10;99.90
2202;DHT22;1107;48.654;9.250;2022-08-05T06:16:45;27.40;99.90
2202;DHT22;1107;48.654;9.250;2022-08-05T06:19:12;27.50;99.90
2202;DHT22;1107;48.654;9.250;2022-08-05T06:21:39;27.70;99.90
2202;DHT22;1107;48.654;9.250;2022-08-05T06:24:07;27.90;99.90
2202;DHT22;1107;48.654;9.250;2022-08-05T06:26:34;28.10;99.90
2202;DHT22;1107;48.654;9.250;2022-08-05T06:29:01;28.30;99.90
2202;DHT22;1107;48.654;9.250;2022-08-05T06:31:29;28.40;99.90
2202;DHT22;1107;48.654;9.250;2022-08-05T06:33:56;28.50;99.90
2202;DHT22;1107;48.654;9.250;2022-08-05T06:36:23;28.60;99.90
2202;DHT22;1107;48.654;9.250;2022-08-05T06:38:50;28.70;99.90
2202;DHT22;1107;48.654;9.250;2022-08-05T06:41:19;28.40;99.90
2202;DHT22;1107;48.654;9.250;2022-08-05T06:43:47;28.30;99.90
2202;DHT22;1107;48.654;9.250;2022-08-05T06:46:14;28.50;99.90
2202;DHT22;1107;48.654;9.250;2022-08-05T06:48:43;28.90;99.90
2202;DHT22;1107;48.654;9.250;2022-08-05T06:51:10;29.30;99.90
2202;DHT22;1107;48.654;9.250;2022-08-05T06:53:37;29.60;99.90
2202;DHT22;1107;48.654;9.250;2022-08-05T06:56:04;29.90;99.90
2202;DHT22;1107;48.654;9.250;2022-08-05T06:58:31;30.20;99.90
2202;DHT22;1107;48.654;9.250;2022-08-05T07:00:59;30.50;99.90
2202;DHT22;1107;48.654;9.250;2022-08-05T07:03:26;30.80;99.90
2202;DHT22;1107;48.654;9.250;2022-08-05T07:05:56;30.90;99.90
2202;DHT22;1107;48.654;9.250;2022-08-05T07:08:23;31.00;99.90
2202;DHT22;1107;48.654;9.250;2022-08-05T07:10:50;31.20;99.90
2202;DHT22;1107;48.654;9.250;2022-08-05T07:13:17;31.40;99.60
2202;DHT22;1107;48.654;9.250;2022-08-05T07:16:02;31.50;94.70
2202;DHT22;1107;48.654;9.250;2022-08-05T07:18:46;31.60;82.10
2202;DHT22;1107;48.654;9.250;2022-08-05T07:21:15;31.70;78.80
2202;DHT22;1107;48.654;9.250;2022-08-05T07:23:42;31.90;79.70
2202;DHT22;1107;48.654;9.250;2022-08-05T07:26:09;32.20;75.10
2202;DHT22;1107;48.654;9.250;2022-08-05T07:28:36;32.30;69.50
2202;DHT22;1107;48.654;9.250;2022-08-05T07:31:03;32.30;59.90
2202;DHT22;1107;48.654;9.250;2022-08-05T07:33:30;32.50;56.20
2202;DHT22;1107;48.654;9.250;2022-08-05T07:35:57;32.60;51.50
2202;DHT22;1107;48.654;9.250;2022-08-05T07:38:26;32.80;49.50
2202;DHT22;1107;48.654;9.250;2022-08-05T07:40:53;32.90;44.10
2202;DHT22;1107;48.654;9.250;2022-08-05T07:43:20;33.10;39.90
2202;DHT22;1107;48.654;9.250;2022-08-05T07:45:47;33.30;35.50
2202;DHT22;1107;48.654;9.250;2022-08-05T07:48:14;33.50;31.40
2202;DHT22;1107;48.654;9.250;2022-08-05T07:50:41;33.60;25.90
2202;DHT22;1107;48.654;9.250;2022-08-05T07:53:08;33.80;24.20
2202;DHT22;1107;48.654;9.250;2022-08-05T07:55:37;33.80;19.90
2202;DHT22;1107;48.654;9.250;2022-08-05T07:58:04;33.80;15.80
2202;DHT22;1107;48.654;9.250;2022-08-05T08:00:31;33.80;11.60
2202;DHT22;1107;48.654;9.250;2022-08-05T08:02:58;34.00;10.20
2202;DHT22;1107;48.654;9.250;2022-08-05T08:05:25;34.20;8.90
2202;DHT22;1107;48.654;9.250;2022-08-05T08:07:52;34.40;6.80
2202;DHT22;1107;48.654;9.250;2022-08-05T08:10:20;34.60;6.80
2202;DHT22;1107;48.654;9.250;2022-08-05T08:12:49;34.70;3.40
2202;DHT22;1107;48.654;9.250;2022-08-05T08:15:16;34.80;1.20
2202;DHT22;1107;48.654;9.250;2022-08-05T08:17:43;34.70;1.00
2202;DHT22;1107;48.654;9.250;2022-08-05T08:20:10;34.70;1.00
2202;DHT22;1107;48.654;9.250;2022-08-05T08:22:38;34.90;1.00
2202;DHT22;1107;48.654;9.250;2022-08-05T08:25:06;35.00;1.00
2202;DHT22;1107;48.654;9.250;2022-08-05T08:27:33;35.10;1.00
2202;DHT22;1107;48.654;9.250;2022-08-05T08:30:01;35.50;1.00
2202;DHT22;1107;48.654;9.250;2022-08-05T08:32:29;35.80;1.00
2202;DHT22;1107;48.654;9.250;2022-08-05T08:34:56;35.90;1.00
2202;DHT22;1107;48.654;9.250;2022-08-05T08:37:23;36.20;1.00
2202;DHT22;1107;48.654;9.250;2022-08-05T08:39:53;36.50;1.00
2202;DHT22;1107;48.654;9.250;2022-08-05T08:42:21;36.70;1.00
2202;DHT22;1107;48.654;9.250;2022-08-05T08:44:48;36.80;1.00
2202;DHT22;1107;48.654;9.250;2022-08-05T08:47:18;36.80;1.00
2202;DHT22;1107;48.654;9.250;2022-08-05T08:49:48;36.80;1.00
2202;DHT22;1107;48.654;9.250;2022-08-05T08:52:26;36.80;1.00
2202;DHT22;1107;48.654;9.250;2022-08-05T08:54:55;36.90;1.00
2202;DHT22;1107;48.654;9.250;2022-08-05T08:57:22;37.10;1.00
2202;DHT22;1107;48.654;9.250;2022-08-05T08:59:50;37.50;1.00
2202;DHT22;1107;48.654;9.250;2022-08-05T09:02:19;37.80;1.00
2202;DHT22;1107;48.654;9.250;2022-08-05T09:04:47;37.40;1.00
2202;DHT22;1107;48.654;9.250;2022-08-05T09:07:14;37.40;1.00
2202;DHT22;1107;48.654;9.250;2022-08-05T09:09:41;37.70;1.00
2202;DHT22;1107;48.654;9.250;2022-08-05T09:12:09;37.50;1.00
2202;DHT22;1107;48.654;9.250;2022-08-05T09:14:36;36.90;1.00
2202;DHT22;1107;48.654;9.250;2022-08-05T09:17:06;35.80;1.00
2202;DHT22;1107;48.654;9.250;2022-08-05T09:19:35;34.60;1.00
2202;DHT22;1107;48.654;9.250;2022-08-05T09:22:02;33.60;1.00
2202;DHT22;1107;48.654;9.250;2022-08-05T09:24:29;32.70;1.00
2202;DHT22;1107;48.654;9.250;2022-08-05T09:26:57;32.10;1.00
2202;DHT22;1107;48.654;9.250;2022-08-05T09:29:37;31.50;1.00
2202;DHT22;1107;48.654;9.250;2022-08-05T09:32:06;31.40;1.00
2202;DHT22;1107;48.654;9.250;2022-08-05T09:34:47;32.20;1.00
2202;DHT22;1107;48.654;9.250;2022-08-05T09:37:18;33.50;1.00
2202;DHT22;1107;48.654;9.250;2022-08-05T09:39:46;34.10;1.00
2202;DHT22;1107;48.654;9.250;2022-08-05T09:42:14;35.00;1.00
2202;DHT22;1107;48.654;9.250;2022-08-05T09:44:43;36.20;1.00
2202;DHT22;1107;48.654;9.250;2022-08-05T09:47:13;36.80;1.00
2202;DHT22;1107;48.654;9.250;2022-08-05T09:49:43;37.30;1.00
2202;DHT22;1107;48.654;9.250;2022-08-05T09:52:19;37.90;1.00
2202;DHT22;1107;48.654;9.250;2022-08-05T09:54:55;37.90;1.00
2202;DHT22;1107;48.654;9.250;2022-08-05T09:57:30;37.30;1.00
2202;DHT22;1107;48.654;9.250;2022-08-05T09:59:59;37.30;1.00
2202;DHT22;1107;48.654;9.250;2022-08-05T10:02:33;38.00;1.00
2202;DHT22;1107;48.654;9.250;2022-08-05T10:05:06;38.20;1.00
2202;DHT22;1107;48.654;9.250;2022-08-05T10:07:47;38.10;1.00
2202;DHT22;1107;48.654;9.250;2022-08-05T10:10:16;38.10;1.00
2202;DHT22;1107;48.654;9.250;2022-08-05T10:12:45;37.20;1.00
2202;DHT22;1107;48.654;9.250;2022-08-05T10:15:19;36.40;1.00
2202;DHT22;1107;48.654;9.250;2022-08-05T10:18:09;35.90;1.00
2202;DHT22;1107;48.654;9.250;2022-08-05T10:20:39;35.60;1.00
2202;DHT22;1107;48.654;9.250;2022-08-05T10:23:09;35.50;1.00
2202;DHT22;1107;48.654;9.250;2022-08-05T10:25:37;35.50;1.00
2202;DHT22;1107;48.654;9.250;2022-08-05T10:28:05;34.90;1.00
2202;DHT22;1107;48.654;9.250;2022-08-05T10:30:32;34.80;1.00
2202;DHT22;1107;48.654;9.250;2022-08-05T10:33:02;35.00;1.00
2202;DHT22;1107;48.654;9.250;2022-08-05T10:35:29;34.90;1.00
2202;DHT22;1107;48.654;9.250;2022-08-05T10:37:57;34.70;1.00
2202;DHT22;1107;48.654;9.250;2022-08-05T10:40:33;34.70;1.00
2202;DHT22;1107;48.654;9.250;2022-08-05T10:43:07;34.70;1.00
2202;DHT22;1107;48.654;9.250;2022-08-05T10:45:35;34.30;1.00
2202;DHT22;1107;48.654;9.250;2022-08-05T10:48:30;34.80;1.00
2202;DHT22;1107;48.654;9.250;2022-08-05T10:51:00;34.90;1.00
2202;DHT22;1107;48.654;9.250;2022-08-05T10:53:36;34.80;1.00
2202;DHT22;1107;48.654;9.250;2022-08-05T10:56:08;34.60;1.00
2202;DHT22;1107;48.654;9.250;2022-08-05T10:58:37;34.80;1.00
2202;DHT22;1107;48.654;9.250;2022-08-05T11:01:12;34.60;1.00
2202;DHT22;1107;48.654;9.250;2022-08-05T11:04:07;34.50;1.00
2202;DHT22;1107;48.654;9.250;2022-08-05T11:07:03;34.60;1.00
2202;DHT22;1107;48.654;9.250;2022-08-05T11:09:36;34.80;1.00
2202;DHT22;1107;48.654;9.250;2022-08-05T11:12:41;34.90;1.00
2202;DHT22;1107;48.654;9.250;2022-08-05T11:15:16;34.70;1.00
2202;DHT22;1107;48.654;9.250;2022-08-05T11:17:44;34.50;1.00
2202;DHT22;1107;48.654;9.250;2022-08-05T11:20:31;34.40;1.00
2202;DHT22;1107;48.654;9.250;2022-08-05T11:22:58;34.30;1.00
2202;DHT22;1107;48.654;9.250;2022-08-05T11:25:34;34.50;1.00
2202;DHT22;1107;48.654;9.250;2022-08-05T11:28:40;35.00;1.00
2202;DHT22;1107;48.654;9.250;2022-08-05T11:31:25;34.80;1.00
2202;DHT22;1107;48.654;9.250;2022-08-05T11:34:01;34.90;1.00
2202;DHT22;1107;48.654;9.250;2022-08-05T11:36:46;35.30;1.00
2202;DHT22;1107;48.654;9.250;2022-08-05T11:39:15;35.70;1.00
2202;DHT22;1107;48.654;9.250;2022-08-05T11:41:52;35.10;1.00
2202;DHT22;1107;48.654;9.250;2022-08-05T11:44:20;35.10;1.00
2202;DHT22;1107;48.654;9.250;2022-08-05T11:46:50;34.50;1.00
2202;DHT22;1107;48.654;9.250;2022-08-05T11:49:18;34.90;1.00
2202;DHT22;1107;48.654;9.250;2022-08-05T11:51:46;34.90;1.00
2202;DHT22;1107;48.654;9.250;2022-08-05T11:54:20;35.00;1.00
2202;DHT22;1107;48.654;9.250;2022-08-05T11:56:51;35.10;1.00
2202;DHT22;1107;48.654;9.250;2022-08-05T11:59:21;35.40;1.00
2202;DHT22;1107;48.654;9.250;2022-08-05T12:01:53;34.80;1.00
2202;DHT22;1107;48.654;9.250;2022-08-05T12:04:20;34.90;1.00
2202;DHT22;1107;48.654;9.250;2022-08-05T12:06:47;34.40;1.00
2202;DHT22;1107;48.654;9.250;2022-08-05T12:09:17;34.60;1.00
2202;DHT22;1107;48.654;9.250;2022-08-05T12:11:46;34.90;1.00
2202;DHT22;1107;48.654;9.250;2022-08-05T12:14:13;34.80;1.00
2202;DHT22;1107;48.654;9.250;2022-08-05T12:16:43;34.70;1.00
2202;DHT22;1107;48.654;9.250;2022-08-05T12:19:12;34.60;1.00
2202;DHT22;1107;48.654;9.250;2022-08-05T12:21:44;34.50;1.00
2202;DHT22;1107;48.654;9.250;2022-08-05T12:24:13;34.60;1.00
2202;DHT22;1107;48.654;9.250;2022-08-05T12:26:43;35.10;1.00
2202;DHT22;1107;48.654;9.250;2022-08-05T12:29:12;35.30;1.00
2202;DHT22;1107;48.654;9.250;2022-08-05T12:31:43;35.50;1.00
2202;DHT22;1107;48.654;9.250;2022-08-05T12:34:10;35.20;1.00
2202;DHT22;1107;48.654;9.250;2022-08-05T12:36:37;35.60;1.00
2202;DHT22;1107;48.654;9.250;2022-08-05T12:39:05;35.80;1.00
2202;DHT22;1107;48.654;9.250;2022-08-05T12:41:33;35.50;1.00
2202;DHT22;1107;48.654;9.250;2022-08-05T12:44:02;35.40;1.00
2202;DHT22;1107;48.654;9.250;2022-08-05T12:46:30;35.20;1.00
2202;DHT22;1107;48.654;9.250;2022-08-05T12:49:03;35.30;1.00
2202;DHT22;1107;48.654;9.250;2022-08-05T12:51:31;35.60;1.00
2202;DHT22;1107;48.654;9.250;2022-08-05T12:54:08;35.70;1.00
2202;DHT22;1107;48.654;9.250;2022-08-05T12:56:40;35.90;1.00
2202;DHT22;1107;48.654;9.250;2022-08-05T12:59:15;35.90;1.00
2202;DHT22;1107;48.654;9.250;2022-08-05T13:01:44;35.50;1.00
2202;DHT22;1107;48.654;9.250;2022-08-05T13:04:15;35.30;1.00
2202;DHT22;1107;48.654;9.250;2022-08-05T13:06:43;35.20;1.00
2202;DHT22;1107;48.654;9.250;2022-08-05T13:09:12;35.30;1.00
2202;DHT22;1107;48.654;9.250;2022-08-05T13:11:41;35.10;1.00
2202;DHT22;1107;48.654;9.250;2022-08-05T13:14:16;34.90;1.00
2202;DHT22;1107;48.654;9.250;2022-08-05T13:16:48;34.90;1.00
2202;DHT22;1107;48.654;9.250;2022-08-05T13:19:16;35.10;1.00
2202;DHT22;1107;48.654;9.250;2022-08-05T13:21:46;35.20;1.00
2202;DHT22;1107;48.654;9.250;2022-08-05T13:24:13;35.40;1.00
2202;DHT22;1107;48.654;9.250;2022-08-05T13:26:42;35.30;1.00
2202;DHT22;1107;48.654;9.250;2022-08-05T13:29:09;35.30;1.00
2202;DHT22;1107;48.654;9.250;2022-08-05T13:31:36;35.40;1.00
2202;DHT22;1107;48.654;9.250;2022-08-05T13:34:03;35.30;1.00
2202;DHT22;1107;48.654;9.250;2022-08-05T13:36:32;34.70;1.00
2202;DHT22;1107;48.654;9.250;2022-08-05T13:38:59;35.20;1.00
2202;DHT22;1107;48.654;9.250;2022-08-05T13:41:26;35.70;1.00
2202;DHT22;1107;48.654;9.250;2022-08-05T13:43:53;35.80;1.00
2202;DHT22;1107;48.654;9.250;2022-08-05T13:46:20;35.80;1.00
2202;DHT22;1107;48.654;9.250;2022-08-05T13:48:48;35.90;1.00
2202;DHT22;1107;48.654;9.250;2022-08-05T13:51:15;36.10;1.00
2202;DHT22;1107;48.654;9.250;2022-08-05T13:53:52;36.00;1.00
2202;DHT22;1107;48.654;9.250;2022-08-05T13:56:19;35.90;1.00
2202;DHT22;1107;48.654;9.250;2022-08-05T13:58:46;36.00;1.00
2202;DHT22;1107;48.654;9.250;2022-08-05T14:01:13;36.20;1.00
2202;DHT22;1107;48.654;9.250;2022-08-05T14:03:40;35.90;1.00
2202;DHT22;1107;48.654;9.250;2022-08-05T14:06:07;35.40;1.00
2202;DHT22;1107;48.654;9.250;2022-08-05T14:08:33;34.70;1.00
2202;DHT22;1107;48.654;9.250;2022-08-05T14:11:01;34.00;1.00
2202;DHT22;1107;48.654;9.250;2022-08-05T14:13:28;33.30;1.00
2202;DHT22;1107;48.654;9.250;2022-08-05T14:15:55;32.90;1.00
2202;DHT22;1107;48.654;9.250;2022-08-05T14:18:22;32.50;1.00
2202;DHT22;1107;48.654;9.250;2022-08-05T14:20:49;32.30;1.00
2202;DHT22;1107;48.654;9.250;2022-08-05T14:23:16;32.20;1.00
2202;DHT22;1107;48.654;9.250;2022-08-05T14:25:44;32.10;1.00
2202;DHT22;1107;48.654;9.250;2022-08-05T14:28:13;31.90;1.00
2202;DHT22;1107;48.654;9.250;2022-08-05T14:30:39;31.80;1.00
2202;DHT22;1107;48.654;9.250;2022-08-05T14:33:06;31.70;1.00
2202;DHT22;1107;48.654;9.250;2022-08-05T14:35:34;31.50;1.00
2202;DHT22;1107;48.654;9.250;2022-08-05T14:38:01;31.40;1.00
2202;DHT22;1107;48.654;9.250;2022-08-05T14:40:28;31.30;1.00
2202;DHT22;1107;48.654;9.250;2022-08-05T14:42:55;31.20;1.00
2202;DHT22;1107;48.654;9.250;2022-08-05T14:45:23;31.10;1.00
2202;DHT22;1107;48.654;9.250;2022-08-05T14:47:50;31.10;1.00
2202;DHT22;1107;48.654;9.250;2022-08-05T14:50:17;31.00;1.00
2202;DHT22;1107;48.654;9.250;2022-08-05T14:52:45;31.00;1.00
2202;DHT22;1107;48.654;9.250;2022-08-05T14:55:12;31.10;1.00
2202;DHT22;1107;48.654;9.250;2022-08-05T14:57:39;31.10;1.00
2202;DHT22;1107;48.654;9.250;2022-08-05T15:00:08;31.10;1.00
2202;DHT22;1107;48.654;9.250;2022-08-05T15:02:36;31.10;1.00
2202;DHT22;1107;48.654;9.250;2022-08-05T15:05:04;31.40;1.00
2202;DHT22;1107;48.654;9.250;2022-08-05T15:07:31;31.60;1.00
2202;DHT22;1107;48.654;9.250;2022-08-05T15:09:58;31.90;1.00
2202;DHT22;1107;48.654;9.250;2022-08-05T15:12:25;31.90;1.00
2202;DHT22;1107;48.654;9.250;2022-08-05T15:14:52;32.30;1.00
2202;DHT22;1107;48.654;9.250;2022-08-05T15:17:19;32.50;1.00
2202;DHT22;1107;48.654;9.250;2022-08-05T15:19:47;32.60;1.00
2202;DHT22;1107;48.654;9.250;2022-08-05T15:22:14;32.90;1.00
2202;DHT22;1107;48.654;9.250;2022-08-05T15:24:41;33.00;1.00
2202;DHT22;1107;48.654;9.250;2022-08-05T15:27:09;32.90;1.00
2202;DHT22;1107;48.654;9.250;2022-08-05T15:29:36;32.70;1.00
2202;DHT22;1107;48.654;9.250;2022-08-05T15:32:03;32.60;1.00
2202;DHT22;1107;48.654;9.250;2022-08-05T15:34:30;32.50;1.00
2202;DHT22;1107;48.654;9.250;2022-08-05T15:36:59;32.10;1.00
2202;DHT22;1107;48.654;9.250;2022-08-05T15:39:26;31.90;1.00
2202;DHT22;1107;48.654;9.250;2022-08-05T15:41:54;31.60;1.00
2202;DHT22;1107;48.654;9.250;2022-08-05T15:44:21;31.40;1.00
2202;DHT22;1107;48.654;9.250;2022-08-05T15:46:48;31.30;1.00
2202;DHT22;1107;48.654;9.250;2022-08-05T15:49:15;31.20;1.00
2202;DHT22;1107;48.654;9.250;2022-08-05T15:51:41;31.20;1.00
2202;DHT22;1107;48.654;9.250;2022-08-05T15:54:10;31.30;1.00
2202;DHT22;1107;48.654;9.250;2022-08-05T15:56:37;31.20;1.00
2202;DHT22;1107;48.654;9.250;2022-08-05T15:59:04;31.10;1.00
2202;DHT22;1107;48.654;9.250;2022-08-05T16:01:31;31.10;1.00
2202;DHT22;1107;48.654;9.250;2022-08-05T16:03:58;30.90;1.00
2202;DHT22;1107;48.654;9.250;2022-08-05T16:06:25;30.80;1.00
2202;DHT22;1107;48.654;9.250;2022-08-05T16:08:52;30.60;1.00
2202;DHT22;1107;48.654;9.250;2022-08-05T16:11:20;30.70;1.00
2202;DHT22;1107;48.654;9.250;2022-08-05T16:13:47;30.60;1.30
2202;DHT22;1107;48.654;9.250;2022-08-05T16:16:14;30.40;1.00
2202;DHT22;1107;48.654;9.250;2022-08-05T16:18:41;30.30;2.40
2202;DHT22;1107;48.654;9.250;2022-08-05T16:21:08;30.10;6.40
2202;DHT22;1107;48.654;9.250;2022-08-05T16:23:35;30.00;8.20
2202;DHT22;1107;48.654;9.250;2022-08-05T16:26:04;29.90;10.60